Aérodrome :
LOGIN :

S'inscrire | Disclaimer

   EN    FR    IT 

 










Légende :    VFR   VFR Marginal   IFR   IFR Intensif   IFR Très Intensif
Visi : 
Plafond : 
>= 8 km
>= 3000ft
5 à 8 km
1000 à 3000 ft
1500m à 5 km
500 à 1000 ft
800 à 1500m
200 à 500 ft
< 800m
< 200 ft
Symboles :   Orages  Brouillard  Fortes neiges  Fortes précipitations  Vent > 20 kt
SIGMETs :   Divers  Orages  Givrage  Turbulence  Onde Orograph.  Cendres Volcan.







- Altitude de l'aérodrome : 821 ft
- Code IATA : LYS
- Voir les cartes d'approche


LFLL - Lyon St Exupéry / Satolas

DERNIER METAR :
  • 280300Z 22011KT 9999 -RA FEW046 BKN073 10/07 Q1003 NOSIG

METARs EXPIRÉS :
  • 280230Z 22010KT 9999 -RA FEW020 BKN053 10/07 Q1003 NOSIG
  • 280200Z 22018KT 8000 -SHRA FEW016 SCT020 BKN040 10/08 Q1003 TEMPO 24020G30KT SHRA
  • 280130Z 19027G39KT 9999 -SHRA SCT020 SCT033 BKN050 11/08 Q1003 BECMG 24020G30KT SHRA BKN020
  • 280100Z 19025KT 9999 FEW024 BKN060 12/07 Q1003 BECMG 24020G30KT SHRA BKN020
  • 280030Z 20027G38KT 9999 FEW024 BKN066 12/07 Q1003 BECMG 24020G30KT SHRA BKN020

TAF TAF LFLL
Valide du 28 à 00h jusqu'au 01 à 06h UTC


272300Z 2800/0106 20025G40KT 9999 BKN025 BKN050
BECMG 2800/2803 20010KT
PROB40
TEMPO 2800/2803 4000 RA
PROB30
TEMPO 2800/2803 SHRA SCT020TCU
TEMPO 2810/2813 24030G45KT 4000 SHRA SCT030CB
BECMG 2817/2819 VRB05KT CAVOK
Pas de NOTAMs connus pour ce terrain.
2 SIGMETs publiés pour la FIR Marseille (LFMM) :
 
Turbulence forte
LFMM SIGMET 9 VALID 280000/280400 LFPW
LFMM MARSEILLE FIR/UIR SEV TURB FCST N OF N4415 AND E OF E00515 SFC/FL120 STNR NC=
Orages noyés dans la masse
LFMM SIGMET 1 VALID 280200/280600 LFPW
LFMM MARSEILLE FIR/UIR EMBD TS FCST WI N4630 E00600 - N4630 E00700 - N4515 E00700 - N4515 E00500 TOP FL300 STNR NC=



MET'MAP, la Météo Aéronautique d'un coup d'oeil ! - Copyright ORBIFLY Décembre 2007 - Disclaimer

ORBIFLY MET'MAP TEAM :

Programmation & Développement : Alexandra Zaïnal
Conception & Développement : Baudouin d'Aumeries
Co-Programmation & Développement : Marc-Olivier Méhu
Soutien technique & logistique : Manuel Goepfert

Contact : metmap@orbifly.com




SOURCES & CREDITS :

   NOAA